createdAt,value
2017-04-02T00:01:06.235Z,88.06
2017-04-02T00:02:18.766Z,87.87
2017-04-02T00:03:31.027Z,88.06
2017-04-02T00:04:43.617Z,87.96
2017-04-02T00:05:55.573Z,88.25
2017-04-02T00:07:08.120Z,87.87
2017-04-02T00:08:20.665Z,87.96
2017-04-02T00:09:33.208Z,87.96
2017-04-02T00:10:45.731Z,88.06
2017-04-02T00:11:57.369Z,87.96
2017-04-02T00:13:09.915Z,88.06
2017-04-02T00:14:22.140Z,87.96
2017-04-02T00:15:34.661Z,88.15
2017-04-02T00:16:47.204Z,88.44
2017-04-02T00:17:59.419Z,88.25
2017-04-02T00:19:11.954Z,88.54
2017-04-02T00:20:24.469Z,88.06
2017-04-02T00:21:37.008Z,88.06
2017-04-02T00:22:49.765Z,87.87
2017-04-02T00:24:01.974Z,87.96
2017-04-02T00:25:14.528Z,87.96
2017-04-02T00:26:27.072Z,87.87
2017-04-02T00:27:39.598Z,88.54
2017-04-02T00:28:52.141Z,88.44
2017-04-02T00:30:04.674Z,88.34
2017-04-02T00:31:17.237Z,88.34
2017-04-02T00:32:29.821Z,88.25
2017-04-02T00:33:42.324Z,87.73
2017-04-02T00:34:54.600Z,88.49
2017-04-02T00:36:06.847Z,88.2
2017-04-02T00:37:19.383Z,88.2
2017-04-02T00:38:31.911Z,88.01
2017-04-02T00:39:44.127Z,88.2
2017-04-02T00:40:56.349Z,88.01
2017-04-02T00:42:08.296Z,87.92
2017-04-02T00:43:20.510Z,88.01
2017-04-02T00:44:33.034Z,87.82
2017-04-02T00:45:45.277Z,87.82
2017-04-02T00:46:57.201Z,87.92
2017-04-02T00:48:09.750Z,87.92
2017-04-02T00:49:22.021Z,87.63
2017-04-02T00:50:34.265Z,88.11
2017-04-02T00:51:46.509Z,88.11
2017-04-02T00:52:58.456Z,87.82
2017-04-02T00:54:10.982Z,87.82
2017-04-02T00:55:23.472Z,87.73
2017-04-02T00:56:36.026Z,87.25
2017-04-02T00:57:48.588Z,87.35
2017-04-02T00:59:00.835Z,87.06
2017-04-02T01:00:13.378Z,87.15
2017-04-02T01:01:25.933Z,87.06
2017-04-02T01:02:38.468Z,87.59
2017-04-02T01:03:50.975Z,87.02
2017-04-02T01:05:03.497Z,87.02
2017-04-02T01:06:16.036Z,87.02
2017-04-02T01:07:28.602Z,87.02
2017-04-02T01:08:41.140Z,87.02
2017-04-02T01:09:53.360Z,87.11
2017-04-02T01:11:05.602Z,87.21
2017-04-02T01:12:18.135Z,87.21
2017-04-02T01:13:30.057Z,86.82
2017-04-02T01:14:42.590Z,86.92
2017-04-02T01:15:55.128Z,87.3
2017-04-02T01:17:07.652Z,87.21
2017-04-02T01:18:19.904Z,87.11
2017-04-02T01:19:32.473Z,86.92
2017-04-02T01:20:44.708Z,87.3
2017-04-02T01:21:57.238Z,87.02
2017-04-02T01:23:09.482Z,87.21
2017-04-02T01:24:21.723Z,86.92
2017-04-02T01:25:34.243Z,87.02
2017-04-02T01:26:46.815Z,86.92
2017-04-02T01:27:59.061Z,86.54
2017-04-02T01:29:11.611Z,86.63
2017-04-02T01:30:24.132Z,86.82
2017-04-02T01:31:36.083Z,87.02
2017-04-02T01:32:48.327Z,87.02
2017-04-02T01:34:00.873Z,86.82
2017-04-02T01:35:13.419Z,87.02
2017-04-02T01:36:25.962Z,87.21
2017-04-02T01:37:38.164Z,86.73
2017-04-02T01:38:50.399Z,86.44
2017-04-02T01:40:02.917Z,86.54
2017-04-02T01:41:15.146Z,87.02
2017-04-02T01:42:27.684Z,87.02
2017-04-02T01:43:40.187Z,87.02
2017-04-02T01:44:52.977Z,86.54
2017-04-02T01:46:05.207Z,87.21
2017-04-02T01:47:17.753Z,87.11
2017-04-02T01:48:29.713Z,86.98
2017-04-02T01:49:42.234Z,86.69
2017-04-02T01:50:54.759Z,86.98
2017-04-02T01:52:07.286Z,86.88
2017-04-02T01:53:19.822Z,86.78
2017-04-02T01:54:32.325Z,86.98
2017-04-02T01:55:44.851Z,86.98
2017-04-02T01:56:57.371Z,87.07
2017-04-02T01:58:09.633Z,86.88
2017-04-02T01:59:22.187Z,87.16
2017-04-02T02:00:34.430Z,86.98
2017-04-02T02:01:46.969Z,87.26
2017-04-02T02:02:59.501Z,87.35
2017-04-02T02:04:12.060Z,87.26
2017-04-02T02:05:24.581Z,87.74
2017-04-02T02:06:37.139Z,87.64
2017-04-02T02:07:49.713Z,87.54
2017-04-02T02:09:01.972Z,87.83
2017-04-02T02:10:14.526Z,87.93
2017-04-02T02:11:27.098Z,87.83
2017-04-02T02:12:39.639Z,87.64
2017-04-02T02:13:52.155Z,88.02
2017-04-02T02:15:04.399Z,87.79
2017-04-02T02:16:16.949Z,87.98
2017-04-02T02:17:29.722Z,88.17
2017-04-02T02:18:41.966Z,87.98
2017-04-02T02:19:54.473Z,88.17
2017-04-02T02:21:07.015Z,88.36
2017-04-02T02:22:19.553Z,88.45
2017-04-02T02:23:32.102Z,88.36
2017-04-02T02:24:44.633Z,88.55
2017-04-02T02:25:56.870Z,88.55
2017-04-02T02:27:09.396Z,88.36
2017-04-02T02:28:21.632Z,88.84
2017-04-02T02:29:34.178Z,88.93
2017-04-02T02:30:46.735Z,88.84
2017-04-02T02:31:59.270Z,89.31
2017-04-02T02:33:11.519Z,89.55
2017-04-02T02:34:23.768Z,89.55
2017-04-02T02:35:35.705Z,89.07
2017-04-02T02:36:48.232Z,89.36
2017-04-02T02:38:00.770Z,89.84
2017-04-02T02:39:12.724Z,89.94
2017-04-02T02:40:25.266Z,90.22
2017-04-02T02:41:37.195Z,89.94
2017-04-02T02:42:49.733Z,90.22
2017-04-02T02:44:02.579Z,90.31
2017-04-02T02:45:14.521Z,90.12
2017-04-02T02:46:27.046Z,90.31
2017-04-02T02:47:39.563Z,90.6
2017-04-02T02:48:52.109Z,90.56
2017-04-02T02:50:04.615Z,90.41
2017-04-02T02:51:17.129Z,90.84
2017-04-02T02:52:29.679Z,90.75
2017-04-02T02:53:41.885Z,90.84
2017-04-02T02:54:54.442Z,91.13
2017-04-02T02:56:06.988Z,91.03
2017-04-02T02:57:19.517Z,91.03
2017-04-02T02:58:32.055Z,91.22
2017-04-02T02:59:44.601Z,91.03
2017-04-02T03:00:57.129Z,91.41
2017-04-02T03:02:09.667Z,91.22
2017-04-02T03:03:22.209Z,91.79
2017-04-02T03:04:34.742Z,91.7
2017-04-02T03:05:47.586Z,91.79
2017-04-02T03:06:59.834Z,91.79
2017-04-02T03:08:12.368Z,91.51
2017-04-02T03:09:24.903Z,91.7
2017-04-02T03:10:37.420Z,92.08
2017-04-02T03:11:49.658Z,92.08
2017-04-02T03:13:02.180Z,91.89
2017-04-02T03:14:14.711Z,92.55
2017-04-02T03:15:27.229Z,92.27
2017-04-02T03:16:39.475Z,91.99
2017-04-02T03:17:52.010Z,92.94
2017-04-02T03:19:04.516Z,92.79
2017-04-02T03:20:16.735Z,93.41
2017-04-02T03:21:29.248Z,93.37
2017-04-02T03:22:41.448Z,93.37
2017-04-02T03:23:53.969Z,92.99
2017-04-02T03:25:05.897Z,93.46
2017-04-02T03:26:18.147Z,93.65
2017-04-02T03:27:30.664Z,94.03
2017-04-02T03:28:42.867Z,93.84
2017-04-02T03:29:55.384Z,94.08
2017-04-02T03:31:07.916Z,94.42
2017-04-02T03:32:20.140Z,94.6
2017-04-02T03:33:32.661Z,94.42
2017-04-02T03:34:44.904Z,94.32
2017-04-02T03:35:57.428Z,94.7
2017-04-02T03:37:09.956Z,95.17
2017-04-02T03:38:22.468Z,94.42
2017-04-02T03:39:34.987Z,94.89
2017-04-02T03:40:47.208Z,94.79
2017-04-02T03:41:59.408Z,95.08
2017-04-02T03:43:11.632Z,95.46
2017-04-02T03:44:24.171Z,95.56
2017-04-02T03:45:36.391Z,95.46
2017-04-02T03:46:48.925Z,95.36
2017-04-02T03:48:01.466Z,95.84
2017-04-02T03:49:13.704Z,96.03
2017-04-02T03:50:25.925Z,96.03
2017-04-02T03:51:38.474Z,96.03
2017-04-02T03:52:51.024Z,96.03
2017-04-02T03:54:03.238Z,96.31
2017-04-02T03:55:15.769Z,96.41
2017-04-02T03:56:28.316Z,96.22
2017-04-02T03:57:40.858Z,96.22
2017-04-02T03:58:53.080Z,95.84
2017-04-02T04:00:05.628Z,95.84
2017-04-02T04:01:17.546Z,96.31
2017-04-02T04:02:29.795Z,96.22
2017-04-02T04:03:42.338Z,96.31
2017-04-02T04:04:54.879Z,96.6
2017-04-02T04:06:07.123Z,96.41
2017-04-02T04:07:19.651Z,96.31
2017-04-02T04:08:32.174Z,96.6
2017-04-02T04:09:44.709Z,96.51
2017-04-02T04:10:57.235Z,96.51
2017-04-02T04:12:09.819Z,96.51
2017-04-02T04:13:22.383Z,96.98
2017-04-02T04:14:34.622Z,96.7
2017-04-02T04:15:47.168Z,96.51
2017-04-02T04:16:59.715Z,96.6
2017-04-02T04:18:12.264Z,96.98
2017-04-02T04:19:24.834Z,96.89
2017-04-02T04:20:37.383Z,96.89
2017-04-02T04:21:50.179Z,96.7
2017-04-02T04:23:02.739Z,96.84
2017-04-02T04:24:15.264Z,96.79
2017-04-02T04:25:27.818Z,96.51
2017-04-02T04:26:40.363Z,96.89
2017-04-02T04:27:52.910Z,96.94
2017-04-02T04:29:05.455Z,97.03
2017-04-02T04:30:17.401Z,96.84
2017-04-02T04:31:29.665Z,97.13
2017-04-02T04:32:42.207Z,97.03
2017-04-02T04:33:54.431Z,97.5
2017-04-02T04:35:06.958Z,97.22
2017-04-02T04:36:19.495Z,97.41
2017-04-02T04:37:32.032Z,97.5
2017-04-02T04:38:44.544Z,97.22
2017-04-02T04:39:56.765Z,97.79
2017-04-02T04:41:09.331Z,97.31
2017-04-02T04:42:21.560Z,97.22
2017-04-02T04:43:34.348Z,97.79
2017-04-02T04:44:46.590Z,97.79
2017-04-02T04:45:59.147Z,97.6
2017-04-02T04:47:11.668Z,97.69
2017-04-02T04:48:23.617Z,97.79
2017-04-02T04:49:36.178Z,97.5
2017-04-02T04:50:48.732Z,97.79
2017-04-02T04:52:01.299Z,97.5
2017-04-02T04:53:13.520Z,97.69
2017-04-02T04:54:26.012Z,97.79
2017-04-02T04:55:38.540Z,97.69
2017-04-02T04:56:51.079Z,97.88
2017-04-02T04:58:03.606Z,97.31
2017-04-02T04:59:16.142Z,97.79
2017-04-02T05:00:28.366Z,97.6
2017-04-02T05:01:40.891Z,97.5
2017-04-02T05:02:53.415Z,97.98
2017-04-02T05:04:05.954Z,97.98
2017-04-02T05:05:18.530Z,97.98
2017-04-02T05:06:30.475Z,98.08
2017-04-02T05:07:43.013Z,98.27
2017-04-02T05:08:55.543Z,97.88
2017-04-02T05:10:08.061Z,98.27
2017-04-02T05:11:19.987Z,98.46
2017-04-02T05:12:32.529Z,98.65
2017-04-02T05:13:45.095Z,98.55
2017-04-02T05:14:57.322Z,98.08
2017-04-02T05:16:09.871Z,98.55
2017-04-02T05:17:22.416Z,98.36
2017-04-02T05:18:34.976Z,98.74
2017-04-02T05:19:47.480Z,98.55
2017-04-02T05:21:00.002Z,98.83
2017-04-02T05:22:12.568Z,98.55
2017-04-02T05:23:25.086Z,98.55
2017-04-02T05:24:37.614Z,98.83
2017-04-02T05:25:50.180Z,98.93
2017-04-02T05:27:02.698Z,98.93
2017-04-02T05:28:15.247Z,99.41
2017-04-02T05:29:27.771Z,99.02
2017-04-02T05:30:39.997Z,98.93
2017-04-02T05:31:52.506Z,99.02
2017-04-02T05:33:05.006Z,99.12
2017-04-02T05:34:17.556Z,99.17
2017-04-02T05:35:29.778Z,99.22
2017-04-02T05:36:42.319Z,98.98
2017-04-02T05:37:54.536Z,99.17
2017-04-02T05:39:07.065Z,99.17
2017-04-02T05:40:19.589Z,99.17
2017-04-02T05:41:31.836Z,99.17
2017-04-02T05:42:44.373Z,99.27
2017-04-02T05:43:56.590Z,99.36
2017-04-02T05:45:09.147Z,98.98
2017-04-02T05:46:21.693Z,98.69
2017-04-02T05:47:34.211Z,99.08
2017-04-02T05:48:46.406Z,98.88
2017-04-02T05:49:58.620Z,98.69
2017-04-02T05:51:10.849Z,98.98
2017-04-02T05:52:23.394Z,99.17
2017-04-02T05:53:35.907Z,98.98
2017-04-02T05:54:48.142Z,98.69
2017-04-02T05:56:00.677Z,98.5
2017-04-02T05:57:13.220Z,98.69
2017-04-02T05:58:25.759Z,98.5
2017-04-02T05:59:37.994Z,98.32
2017-04-02T06:00:50.516Z,98.5
2017-04-02T06:02:03.059Z,98.55
2017-04-02T06:03:15.601Z,98.36
2017-04-02T06:04:28.149Z,98.36
2017-04-02T06:05:40.675Z,98.46
2017-04-02T06:06:52.912Z,98.65
2017-04-02T06:08:05.109Z,98.46
2017-04-02T06:09:17.316Z,98.18
2017-04-02T06:10:29.881Z,98.03
2017-04-02T06:11:42.423Z,98.13
2017-04-02T06:12:54.967Z,97.94
2017-04-02T06:14:07.492Z,97.36
2017-04-02T06:15:20.012Z,97.08
2017-04-02T06:16:32.809Z,96.98
2017-04-02T06:17:45.405Z,96.89
2017-04-02T06:18:57.922Z,96.7
2017-04-02T06:20:10.146Z,96.75
2017-04-02T06:21:22.689Z,96.36
2017-04-02T06:22:35.239Z,96.27
2017-04-02T06:23:47.466Z,95.79
2017-04-02T06:25:00.013Z,95.98
2017-04-02T06:26:12.555Z,95.98
2017-04-02T06:27:25.079Z,95.98
2017-04-02T06:28:37.280Z,95.79
2017-04-02T06:29:49.474Z,95.89
2017-04-02T06:31:02.006Z,95.61
2017-04-02T06:32:14.216Z,96.22
2017-04-02T06:33:26.752Z,95.65
2017-04-02T06:34:39.294Z,95.56
2017-04-02T06:35:51.500Z,95.08
2017-04-02T06:37:04.036Z,94.89
2017-04-02T06:38:15.964Z,94.6
2017-04-02T06:39:28.469Z,94.89
2017-04-02T06:40:41.024Z,94.27
2017-04-02T06:41:53.247Z,93.98
2017-04-02T06:43:05.790Z,93.51
2017-04-02T06:44:18.311Z,93.79
2017-04-02T06:45:30.536Z,93.6
2017-04-02T06:46:42.782Z,93.22
2017-04-02T06:47:54.707Z,93.51
2017-04-02T06:49:06.933Z,92.93
2017-04-02T06:50:18.851Z,93.12
2017-04-02T06:51:31.366Z,93.12
2017-04-02T06:52:43.883Z,93.41
2017-04-02T06:53:56.428Z,93.12
2017-04-02T06:55:08.636Z,93.51
2017-04-02T06:56:21.181Z,93.51
2017-04-02T06:57:33.752Z,92.93
2017-04-02T06:58:46.294Z,92.46
2017-04-02T06:59:58.816Z,93.12
2017-04-02T07:01:11.112Z,92.55
2017-04-02T07:02:23.359Z,92.83
2017-04-02T07:03:35.881Z,92.36
2017-04-02T07:04:48.704Z,92.17
2017-04-02T07:06:01.239Z,92.31
2017-04-02T07:07:13.487Z,91.93
2017-04-02T07:08:26.041Z,91.55
2017-04-02T07:09:38.576Z,91.45
2017-04-02T07:10:51.104Z,90.78
2017-04-02T07:12:03.344Z,90.97
2017-04-02T07:13:15.267Z,90.5
2017-04-02T07:14:27.509Z,90.11
2017-04-02T07:15:40.041Z,90.35
2017-04-02T07:16:52.261Z,89.87
2017-04-02T07:18:04.808Z,89.97
2017-04-02T07:19:16.748Z,89.97
2017-04-02T07:20:29.364Z,89.97
2017-04-02T07:21:41.895Z,89.97
2017-04-02T07:22:54.417Z,89.39
2017-04-02T07:24:06.951Z,89.34
2017-04-02T07:25:19.154Z,89.34
2017-04-02T07:26:31.696Z,88.68
2017-04-02T07:27:44.250Z,88.01
2017-04-02T07:28:56.796Z,88.05
2017-04-02T07:30:09.333Z,88.15
2017-04-02T07:31:21.227Z,87.66
2017-04-02T07:32:33.751Z,87.95
2017-04-02T07:33:45.997Z,87.66
2017-04-02T07:34:58.226Z,87.57
2017-04-02T07:36:10.765Z,86.94
2017-04-02T07:37:23.310Z,87.33
2017-04-02T07:38:35.528Z,87.23
2017-04-02T07:39:48.023Z,86.94
2017-04-02T07:41:00.554Z,87.04
2017-04-02T07:42:12.802Z,87.23
2017-04-02T07:43:25.343Z,87.04
2017-04-02T07:44:37.887Z,86.76
2017-04-02T07:45:50.131Z,86.94
2017-04-02T07:47:02.649Z,86.76
2017-04-02T07:48:14.594Z,86.94
2017-04-02T07:49:27.119Z,86.85
2017-04-02T07:50:39.673Z,86.85
2017-04-02T07:51:52.222Z,87.04
2017-04-02T07:53:04.757Z,86.85
2017-04-02T07:54:16.974Z,87.04
2017-04-02T07:55:29.501Z,86.94
2017-04-02T07:56:42.016Z,87.52
2017-04-02T07:57:54.537Z,87.23
2017-04-02T07:59:07.361Z,86.76
2017-04-02T08:00:19.907Z,86.94
2017-04-02T08:01:32.457Z,86.94
2017-04-02T08:02:45.002Z,87.04
2017-04-02T08:03:56.945Z,87.14
2017-04-02T08:05:09.466Z,87.04
2017-04-02T08:06:22.019Z,86.94
2017-04-02T08:07:34.567Z,86.8
2017-04-02T08:08:47.104Z,86.61
2017-04-02T08:09:59.658Z,86.51
2017-04-02T08:11:12.216Z,86.7
2017-04-02T08:12:24.112Z,86.51
2017-04-02T08:13:36.633Z,86.41
2017-04-02T08:14:49.145Z,86.61
2017-04-02T08:16:01.361Z,86.41
2017-04-02T08:17:13.624Z,85.94
2017-04-02T08:18:25.870Z,85.84
2017-04-02T08:19:38.415Z,85.88
2017-04-02T08:20:51.269Z,86.08
2017-04-02T08:22:03.834Z,85.69
2017-04-02T08:23:16.401Z,85.6
2017-04-02T08:24:28.947Z,85.41
2017-04-02T08:25:41.503Z,85.21
2017-04-02T08:26:54.063Z,85.02
2017-04-02T08:28:06.613Z,84.78
2017-04-02T08:29:18.587Z,84.58
2017-04-02T08:30:31.134Z,84.78
2017-04-02T08:31:43.698Z,84.01
2017-04-02T08:32:55.921Z,84.3
2017-04-02T08:34:08.150Z,84.88
2017-04-02T08:35:20.720Z,84.58
2017-04-02T08:36:33.263Z,84.49
2017-04-02T08:37:45.804Z,84.58
2017-04-02T08:38:58.358Z,84.39
2017-04-02T08:40:10.876Z,83.92
2017-04-02T08:41:23.450Z,84.11
2017-04-02T08:42:35.988Z,84.3
2017-04-02T08:43:48.494Z,84.2
2017-04-02T08:45:00.738Z,83.44
2017-04-02T08:46:12.998Z,83.72
2017-04-02T08:47:25.247Z,83.72
2017-04-02T08:48:37.765Z,83.05
2017-04-02T08:49:50.297Z,83.95
2017-04-02T08:51:02.844Z,83.25
2017-04-02T08:52:15.065Z,83.53
2017-04-02T08:53:27.627Z,83.63
2017-04-02T08:54:40.169Z,83.53
2017-04-02T08:55:52.719Z,83.82
2017-04-02T08:57:05.289Z,83.67
2017-04-02T08:58:17.817Z,84.44
2017-04-02T08:59:30.031Z,84.25
2017-04-02T09:00:42.277Z,83.48
2017-04-02T09:01:54.845Z,83.58
2017-04-02T09:03:07.369Z,83.48
2017-04-02T09:04:19.923Z,83.58
2017-04-02T09:05:32.490Z,83.19
2017-04-02T09:06:45.015Z,83
2017-04-02T09:07:57.257Z,83.23
2017-04-02T09:09:09.533Z,82.75
2017-04-02T09:10:22.065Z,82.18
2017-04-02T09:11:34.299Z,82.94
2017-04-02T09:12:46.811Z,83.33
2017-04-02T09:13:59.365Z,83.14
2017-04-02T09:15:11.603Z,83.04
2017-04-02T09:16:24.130Z,82.56
2017-04-02T09:17:36.652Z,83.52
2017-04-02T09:18:49.173Z,83.52
2017-04-02T09:20:01.725Z,83.42
2017-04-02T09:21:13.683Z,83.33
2017-04-02T09:22:25.925Z,83.52
2017-04-02T09:23:38.446Z,82.56
2017-04-02T09:24:50.942Z,82.75
2017-04-02T09:26:03.741Z,82.85
2017-04-02T09:27:15.966Z,82.75
2017-04-02T09:28:28.212Z,82.18
2017-04-02T09:29:40.751Z,82.37
2017-04-02T09:30:53.308Z,82.21
2017-04-02T09:32:05.525Z,81.84
2017-04-02T09:33:17.796Z,81.93
2017-04-02T09:34:29.442Z,81.64
2017-04-02T09:35:42.009Z,81.84
2017-04-02T09:36:54.554Z,81.64
2017-04-02T09:38:07.080Z,81.84
2017-04-02T09:39:19.005Z,81.64
2017-04-02T09:40:30.639Z,81.4
2017-04-02T09:41:42.885Z,80.73
2017-04-02T09:42:55.388Z,81.35
2017-04-02T09:44:07.655Z,81.35
2017-04-02T09:45:20.201Z,81.26
2017-04-02T09:46:32.727Z,81.68
2017-04-02T09:47:45.272Z,81.59
2017-04-02T09:48:57.495Z,81.87
2017-04-02T09:50:09.445Z,81.68
2017-04-02T09:51:21.990Z,81.68
2017-04-02T09:52:34.251Z,81.68
2017-04-02T09:53:46.827Z,81.59
2017-04-02T09:54:59.372Z,81.97
2017-04-02T09:56:11.618Z,82.26
2017-04-02T09:57:23.535Z,82.07
2017-04-02T09:58:36.377Z,82.16
2017-04-02T09:59:48.612Z,81.87
2017-04-02T10:01:01.147Z,82.07
2017-04-02T10:02:13.702Z,81.97
2017-04-02T10:03:26.265Z,81.4
2017-04-02T10:04:38.814Z,81.1
2017-04-02T10:05:51.340Z,81.34
2017-04-02T10:07:03.588Z,80.86
2017-04-02T10:08:15.846Z,81.43
2017-04-02T10:09:27.477Z,80.57
2017-04-02T10:10:39.724Z,80.66
2017-04-02T10:11:52.261Z,80.76
2017-04-02T10:13:04.812Z,80.86
2017-04-02T10:14:17.357Z,80.19
2017-04-02T10:15:29.878Z,80.47
2017-04-02T10:16:42.399Z,80.19
2017-04-02T10:17:54.623Z,80.09
2017-04-02T10:19:07.199Z,80.38
2017-04-02T10:20:19.462Z,80.28
2017-04-02T10:21:31.700Z,80.09
2017-04-02T10:22:44.233Z,80.47
2017-04-02T10:23:56.470Z,80.28
2017-04-02T10:25:08.725Z,79.99
2017-04-02T10:26:20.996Z,79.9
2017-04-02T10:27:33.229Z,79.8
2017-04-02T10:28:45.764Z,79.61
2017-04-02T10:29:58.051Z,80.05
2017-04-02T10:31:10.600Z,80.05
2017-04-02T10:32:23.149Z,80.24
2017-04-02T10:33:35.092Z,79.76
2017-04-02T10:34:47.684Z,80.24
2017-04-02T10:36:00.237Z,79.86
2017-04-02T10:37:12.479Z,79.76
2017-04-02T10:38:25.028Z,79.38
2017-04-02T10:39:37.271Z,79.57
2017-04-02T10:40:49.513Z,79.86
2017-04-02T10:42:02.031Z,79.67
2017-04-02T10:43:14.255Z,79.76
2017-04-02T10:44:26.807Z,79.86
2017-04-02T10:45:39.044Z,79.86
2017-04-02T10:46:51.290Z,79.8
2017-04-02T10:48:03.835Z,79.52
2017-04-02T10:49:16.086Z,79.52
2017-04-02T10:50:28.656Z,79.75
2017-04-02T10:51:41.198Z,79.17
2017-04-02T10:52:53.730Z,78.69
2017-04-02T10:54:06.264Z,78.5
2017-04-02T10:55:18.468Z,78.44
2017-04-02T10:56:29.785Z,78.34
2017-04-02T10:57:42.327Z,78.83
2017-04-02T10:58:54.548Z,78.44
2017-04-02T11:00:06.807Z,77.86
2017-04-02T11:01:19.051Z,78.34
2017-04-02T11:02:31.589Z,77.96
2017-04-02T11:03:44.135Z,78.28
2017-04-02T11:04:56.678Z,77.9
2017-04-02T11:06:09.175Z,78
2017-04-02T11:07:21.120Z,77.81
2017-04-02T11:08:33.665Z,77.42
2017-04-02T11:09:45.624Z,77.08
2017-04-02T11:10:58.144Z,77.36
2017-04-02T11:12:10.682Z,77.17
2017-04-02T11:13:23.232Z,76.92
2017-04-02T11:14:35.404Z,76.25
2017-04-02T11:15:47.666Z,74.41
2017-04-02T11:16:59.901Z,73.74
2017-04-02T11:18:12.411Z,73.94
2017-04-02T11:19:24.683Z,73.94
2017-04-02T11:20:36.903Z,74.13
2017-04-02T11:21:49.507Z,74.32
2017-04-02T11:23:02.074Z,74.32
2017-04-02T11:24:14.624Z,74.32
2017-04-02T11:25:27.163Z,74.51
2017-04-02T11:26:39.683Z,73.94
2017-04-02T11:27:51.980Z,73.84
2017-04-02T11:29:04.500Z,73.8
2017-04-02T11:30:16.741Z,74.57
2017-04-02T11:31:28.999Z,74.57
2017-04-02T11:32:41.546Z,74.57
2017-04-02T11:33:54.108Z,74.96
2017-04-02T11:35:06.663Z,74.86
2017-04-02T11:36:18.925Z,75.05
2017-04-02T11:37:31.173Z,74.96
2017-04-02T11:38:43.398Z,73.9
2017-04-02T11:39:55.634Z,73.61
2017-04-02T11:41:07.888Z,73.8
2017-04-02T11:42:20.437Z,74.19
2017-04-02T11:43:32.380Z,74.48
2017-04-02T11:44:44.630Z,73.86
2017-04-02T11:45:56.871Z,73.8
2017-04-02T11:47:09.111Z,73.71
2017-04-02T11:48:21.342Z,73.28
2017-04-02T11:49:33.601Z,73.86
2017-04-02T11:50:45.806Z,73.86
2017-04-02T11:51:58.346Z,74.09
2017-04-02T11:53:10.915Z,74.19
2017-04-02T11:54:23.138Z,73.99
2017-04-02T11:55:35.690Z,73.9
2017-04-02T11:56:47.906Z,73.99
2017-04-02T11:58:00.426Z,73.55
2017-04-02T11:59:12.952Z,72.94
2017-04-02T12:00:25.490Z,72.39
2017-04-02T12:01:38.022Z,72.78
2017-04-02T12:02:50.264Z,72.45
2017-04-02T12:04:02.816Z,72.36
2017-04-02T12:05:15.049Z,72.74
2017-04-02T12:06:27.576Z,72.65
2017-04-02T12:07:39.528Z,72.9
2017-04-02T12:08:52.061Z,73.38
2017-04-02T12:10:04.592Z,73.77
2017-04-02T12:11:17.106Z,74.34
2017-04-02T12:12:29.660Z,74.73
2017-04-02T12:13:41.623Z,74.34
2017-04-02T12:14:54.144Z,74.79
2017-04-02T12:16:06.417Z,75.75
2017-04-02T12:17:18.970Z,76.04
2017-04-02T12:18:31.529Z,75.46
2017-04-02T12:19:44.049Z,75.46
2017-04-02T12:20:56.581Z,74.88
2017-04-02T12:22:09.099Z,74.5
2017-04-02T12:23:21.641Z,74.6
2017-04-02T12:24:34.191Z,74.21
2017-04-02T12:25:46.415Z,74.02
2017-04-02T12:26:58.678Z,73.25
2017-04-02T12:28:10.604Z,73.15
2017-04-02T12:29:23.149Z,72.48
2017-04-02T12:30:35.974Z,71.14
2017-04-02T12:31:48.562Z,71.23
2017-04-02T12:33:01.105Z,71.08
2017-04-02T12:34:13.626Z,70.68
2017-04-02T12:35:25.846Z,71.46
2017-04-02T12:36:38.071Z,69.44
2017-04-02T12:37:50.302Z,70.3
2017-04-02T12:39:02.841Z,70.01
2017-04-02T12:40:15.139Z,70.5
2017-04-02T12:41:27.688Z,70.01
2017-04-02T12:42:40.250Z,69.24
2017-04-02T12:43:52.846Z,68.76
2017-04-02T12:45:05.114Z,68.76
2017-04-02T12:46:17.635Z,69.44
2017-04-02T12:47:30.166Z,69.92
2017-04-02T12:48:42.744Z,69.63
2017-04-02T12:49:55.301Z,69.63
2017-04-02T12:51:07.569Z,69.82
2017-04-02T12:52:20.114Z,70.59
2017-04-02T12:53:32.671Z,70.4
2017-04-02T12:54:44.908Z,70.78
2017-04-02T12:55:57.153Z,70.88
2017-04-02T12:57:09.684Z,70.88
2017-04-02T12:58:22.222Z,70.88
2017-04-02T12:59:34.464Z,70.98
2017-04-02T13:00:47.019Z,70.01
2017-04-02T13:01:59.568Z,69.53
2017-04-02T13:03:12.105Z,69.63
2017-04-02T13:04:24.649Z,70.01
2017-04-02T13:05:36.573Z,70.5
2017-04-02T13:06:48.865Z,70.21
2017-04-02T13:08:01.369Z,69.44
2017-04-02T13:09:13.914Z,69.67
2017-04-02T13:10:26.463Z,68.99
2017-04-02T13:11:39.009Z,68.13
2017-04-02T13:12:51.548Z,67.16
2017-04-02T13:14:04.098Z,66.84
2017-04-02T13:15:16.637Z,67.83
2017-04-02T13:16:29.235Z,68.19
2017-04-02T13:17:41.481Z,68.09
2017-04-02T13:18:54.048Z,68.29
2017-04-02T13:20:06.852Z,67.71
2017-04-02T13:21:19.394Z,68.38
2017-04-02T13:22:31.623Z,68.57
2017-04-02T13:23:43.861Z,67.9
2017-04-02T13:24:56.411Z,68.09
2017-04-02T13:26:08.680Z,68.38
2017-04-02T13:27:21.245Z,68.63
2017-04-02T13:28:32.866Z,68.83
2017-04-02T13:29:45.415Z,68.63
2017-04-02T13:30:57.971Z,69.79
2017-04-02T13:32:10.504Z,69.5
2017-04-02T13:33:22.724Z,69.89
2017-04-02T13:34:34.975Z,68.83
2017-04-02T13:35:47.520Z,68.44
2017-04-02T13:37:00.075Z,69.02
2017-04-02T13:38:12.619Z,70.27
2017-04-02T13:39:24.858Z,71.04
2017-04-02T13:40:37.412Z,72.48
2017-04-02T13:41:49.054Z,72.86
2017-04-02T13:43:01.600Z,73.6
2017-04-02T13:44:14.149Z,73.25
2017-04-02T13:45:26.719Z,73.98
2017-04-02T13:46:38.409Z,74.3
2017-04-02T13:47:50.638Z,74.17
2017-04-02T13:49:03.159Z,73.83
2017-04-02T13:50:15.695Z,74.46
2017-04-02T13:51:27.971Z,74.08
2017-04-02T13:52:40.517Z,73.6
2017-04-02T13:53:53.116Z,74.46
2017-04-02T13:55:05.662Z,74.85
2017-04-02T13:56:17.609Z,75.13
2017-04-02T13:57:30.446Z,75.62
2017-04-02T13:58:42.996Z,76
2017-04-02T13:59:55.509Z,75.9
2017-04-02T14:01:08.043Z,76.09
2017-04-02T14:02:20.253Z,76
2017-04-02T14:03:32.452Z,76.48
2017-04-02T14:04:45.025Z,76.57
2017-04-02T14:05:57.293Z,77.25
2017-04-02T14:07:09.860Z,76.86
2017-04-02T14:08:22.088Z,76.48
2017-04-02T14:09:34.635Z,76.39
2017-04-02T14:10:47.156Z,76.39
2017-04-02T14:11:59.370Z,76.19
2017-04-02T14:13:11.899Z,76.25
2017-04-02T14:14:24.443Z,75.48
2017-04-02T14:15:36.986Z,75.29
2017-04-02T14:16:49.531Z,74.33
2017-04-02T14:18:02.059Z,74.33
2017-04-02T14:19:14.598Z,74.62
2017-04-02T14:20:27.126Z,75.2
2017-04-02T14:21:39.362Z,75.29
2017-04-02T14:22:51.895Z,75.2
2017-04-02T14:24:04.413Z,74.52
2017-04-02T14:25:16.961Z,75.2
2017-04-02T14:26:29.220Z,75.52
2017-04-02T14:27:41.444Z,75.77
2017-04-02T14:28:54.011Z,75.04
2017-04-02T14:30:06.564Z,74.46
2017-04-02T14:31:18.815Z,74.71
2017-04-02T14:32:31.057Z,75.13
2017-04-02T14:33:43.595Z,74.75
2017-04-02T14:34:55.817Z,75.52
2017-04-02T14:36:08.026Z,75.42
2017-04-02T14:37:20.583Z,74.55
2017-04-02T14:38:33.086Z,74.33
2017-04-02T14:39:45.333Z,74.52
2017-04-02T14:40:58.121Z,74.33
2017-04-02T14:42:10.632Z,74.9
2017-04-02T14:43:23.164Z,75.2
2017-04-02T14:44:35.683Z,75.77
2017-04-02T14:45:47.914Z,76.06
2017-04-02T14:47:00.429Z,76.34
2017-04-02T14:48:12.957Z,76.82
2017-04-02T14:49:25.220Z,76.88
2017-04-02T14:50:37.776Z,76.79
2017-04-02T14:51:50.346Z,77.08
2017-04-02T14:53:02.270Z,76.79
2017-04-02T14:54:14.826Z,77.08
2017-04-02T14:55:27.051Z,77.26
2017-04-02T14:56:39.300Z,77.17
2017-04-02T14:57:51.826Z,76.88
2017-04-02T14:59:04.385Z,76.59
2017-04-02T15:00:16.891Z,75.92
2017-04-02T15:01:29.152Z,75.82
2017-04-02T15:02:41.386Z,75.73
2017-04-02T15:03:53.926Z,74.68
2017-04-02T15:05:06.418Z,74.68
2017-04-02T15:06:18.972Z,74.87
2017-04-02T15:07:31.531Z,74.96
2017-04-02T15:08:44.052Z,74.58
2017-04-02T15:09:56.602Z,74.68
2017-04-02T15:11:08.872Z,74.1
2017-04-02T15:12:21.426Z,74.29
2017-04-02T15:13:33.989Z,73.91
2017-04-02T15:14:46.560Z,73.62
2017-04-02T15:15:59.113Z,74.1
2017-04-02T15:17:11.073Z,73.91
2017-04-02T15:18:23.605Z,73.77
2017-04-02T15:19:35.852Z,73.68
2017-04-02T15:20:48.114Z,73.58
2017-04-02T15:22:00.657Z,74.44
2017-04-02T15:23:12.606Z,73.58
2017-04-02T15:24:25.373Z,73.68
2017-04-02T15:25:37.620Z,73.87
2017-04-02T15:26:50.119Z,73.87
2017-04-02T15:28:02.665Z,74.16
2017-04-02T15:29:14.910Z,74.35
2017-04-02T15:30:27.454Z,74.35
2017-04-02T15:31:40.007Z,73.97
2017-04-02T15:32:52.245Z,74.35
2017-04-02T15:34:04.775Z,74.35
2017-04-02T15:35:17.316Z,74.35
2017-04-02T15:36:29.245Z,74.73